Weather History for KHBV - February, 2014

Change the Weather History Date:

Saturday, February 1, 2014

  Actual Average (KLRD) Record (KLRD)
Temperature  
Mean Temperature 74 °F 58 °F  
Max Temperature 82 °F 69 °F 93 °F (1963)
Min Temperature 65 °F 48 °F 20 °F (1917)
Degree Days  
Heating Degree Days 0 8  
Month to date heating degree days 8  
Since 1 July heating degree days 687  
Cooling Degree Days 8 1  
Month to date cooling degree days 1  
Year to date cooling degree days 29  
Growing Degree Days 24 (Base 50)    
Moisture  
Dew Point 62 °F    
Average Humidity 73    
Maximum Humidity 91    
Minimum Humidity 46    
Precipitation  
Precipitation 0.00 in 0.03 in 0.93 in (1948)
Month to date precipitation 0.03  
Year to date precipitation 0.93  
Sea Level Pressure  
Sea Level Pressure 29.78 in    
Wind  
Wind Speed 15 mph (SSE)    
Max Wind Speed 22 mph    
Max Gust Speed 31 mph    
Visibility 9 miles    
Events      
T = Trace of Precipitation, MM = Missing Value Source: NWS Daily Summary

Daily Weather History Graph

Daily Weather History Graph

Search for Another Location

Airport or City:

Trip Planner

Search our weather history database for the weather conditions in past years. The results will help you decide how hot, cold, wet, or windy it might be!

Date:

Astronomy

Feb. 01, 2014 Rise Set
Actual Time 7:21 AM CST 6:16 PM CST
Civil Twilight 6:56 AM CST 6:40 PM CST
Nautical Twilight 6:28 AM CST 7:08 PM CST
Astronomical Twilight 6:01 AM CST 7:36 PM CST
Moon 8:26 AM CST (2/1) 8:35 PM CST (2/1)
Length of Visible Light 11h 44m
Length of Day
10h 55m
Waxing Crescent, 5% of the Moon is Illuminated
Feb 1
Waxing Crescent
Feb 6
First Quarter
Feb 14
Full
Feb 22
Last Quarter
Mar 1
New

Hourly Weather History & Observations

Time (CST) Temp. Heat Index Dew Point Humidity Pressure Visibility Wind Dir Wind Speed Gust Speed Precip Events Conditions
12:15 AM 65.7 °F - 61.3 °F 86% 29.82 in 10.0 mi SSE 15.0 mph 24.2 mph N/A   Overcast
12:35 AM 65.5 °F - 61.2 °F 86% 29.82 in 10.0 mi SSE 16.1 mph 23.0 mph N/A   Overcast
12:55 AM 65.5 °F - 61.2 °F 86% 29.82 in 10.0 mi SSE 16.1 mph 26.5 mph N/A   Overcast
1:15 AM 65.3 °F - 60.8 °F 85% 29.81 in 10.0 mi SSE 19.6 mph 26.5 mph N/A   Overcast
1:35 AM 65.3 °F - 61.0 °F 86% 29.80 in 10.0 mi SSE 20.7 mph 26.5 mph N/A   Overcast
1:55 AM 65.3 °F - 61.0 °F 86% 29.79 in 10.0 mi SSE 19.6 mph 27.6 mph N/A   Overcast
2:15 AM 65.3 °F - 61.2 °F 86% 29.78 in 10.0 mi SSE 17.3 mph 27.6 mph N/A   Overcast
2:35 AM 65.3 °F - 61.2 °F 86% 29.78 in 10.0 mi SSE 17.3 mph 25.3 mph N/A   Overcast
2:55 AM 65.3 °F - 61.3 °F 87% 29.78 in 10.0 mi SSE 16.1 mph 25.3 mph N/A   Overcast
3:15 AM 65.3 °F - 61.3 °F 87% 29.77 in 10.0 mi SSE 18.4 mph 27.6 mph N/A   Overcast
3:35 AM 65.5 °F - 61.3 °F 86% 29.77 in 10.0 mi SSE 18.4 mph 25.3 mph N/A   Overcast
3:55 AM 65.8 °F - 61.3 °F 85% 29.77 in 10.0 mi SSE 17.3 mph 24.2 mph N/A   Overcast
4:15 AM 66.2 °F - 61.3 °F 84% 29.77 in 10.0 mi SSE 18.4 mph 28.8 mph N/A   Overcast
4:35 AM 66.6 °F - 61.3 °F 83% 29.77 in 10.0 mi SSE 20.7 mph 27.6 mph N/A   Overcast
4:55 AM 66.7 °F - 61.2 °F 82% 29.77 in 10.0 mi SSE 21.9 mph 28.8 mph N/A   Overcast
5:15 AM 67.1 °F - 61.2 °F 81% 29.76 in 10.0 mi SSE 19.6 mph 28.8 mph N/A   Overcast
5:35 AM 67.1 °F - 61.2 °F 81% 29.76 in 10.0 mi SSE 16.1 mph 27.6 mph N/A   Overcast
5:55 AM 67.1 °F - 61.2 °F 81% 29.77 in 10.0 mi SSE 19.6 mph 27.6 mph N/A   Overcast
6:15 AM 67.3 °F - 61.3 °F 81% 29.77 in 10.0 mi SSE 13.8 mph 21.9 mph N/A   Overcast
6:35 AM 67.3 °F - 61.3 °F 81% 29.76 in 10.0 mi SSE 19.6 mph 28.8 mph N/A   Overcast
6:55 AM 67.3 °F - 61.0 °F 80% 29.77 in 10.0 mi SSE 20.7 mph 27.6 mph N/A   Overcast
7:15 AM 67.3 °F - 61.0 °F 80% 29.77 in 10.0 mi SSE 20.7 mph 31.1 mph N/A   Overcast
7:35 AM 67.5 °F - 61.2 °F 80% 29.78 in 10.0 mi SSE 15.0 mph 24.2 mph N/A   Overcast
7:55 AM 67.5 °F - 61.3 °F 81% 29.79 in 10.0 mi SSE 17.3 mph 27.6 mph N/A   Overcast
8:15 AM 67.5 °F - 61.2 °F 80% 29.80 in 10.0 mi South 18.4 mph 24.2 mph N/A   Overcast
8:35 AM 67.5 °F - 61.2 °F 80% 29.80 in 10.0 mi South 15.0 mph 27.6 mph N/A   Overcast
8:55 AM 68.0 °F - 61.3 °F 79% 29.81 in 10.0 mi South 10.4 mph 23.0 mph N/A   Overcast
9:15 AM 68.2 °F - 61.2 °F 78% 29.82 in 10.0 mi South 18.4 mph 25.3 mph N/A   Overcast
9:35 AM 68.5 °F - 61.2 °F 77% 29.82 in 10.0 mi SSE 18.4 mph 24.2 mph N/A   Overcast
9:55 AM 69.4 °F - 61.3 °F 75% 29.81 in 10.0 mi SSE 16.1 mph 24.2 mph N/A   Overcast
10:15 AM 70.0 °F - 61.2 °F 73% 29.82 in 10.0 mi South 18.4 mph 24.2 mph N/A   Overcast
10:35 AM 70.7 °F - 61.0 °F 71% 29.82 in 10.0 mi South 19.6 mph 24.2 mph N/A   Overcast
10:55 AM 71.4 °F - 61.0 °F 70% 29.83 in 10.0 mi South 13.8 mph 21.9 mph N/A   Overcast
11:15 AM 72.3 °F - 61.0 °F 67% 29.82 in 10.0 mi South 12.7 mph 19.6 mph N/A   Mostly Cloudy
11:35 AM 73.4 °F - 61.2 °F 65% 29.82 in 10.0 mi SSE 13.8 mph 17.3 mph N/A   Mostly Cloudy
11:55 AM 74.8 °F - 61.2 °F 62% 29.82 in 10.0 mi South 13.8 mph 20.7 mph N/A   Mostly Cloudy
12:15 PM 75.6 °F - 61.3 °F 61% 29.81 in 10.0 mi SSE 10.4 mph 16.1 mph N/A   Scattered Clouds
12:35 PM 76.8 °F - 61.2 °F 58% 29.79 in 10.0 mi SSE 13.8 mph 17.3 mph N/A   Scattered Clouds
12:55 PM 77.7 °F - 61.2 °F 57% 29.78 in 7.0 mi SSE 12.7 mph 17.3 mph N/A   Clear
1:15 PM 78.8 °F - 61.0 °F 54% 29.77 in 10.0 mi SSE 11.5 mph 16.1 mph N/A   Clear
1:35 PM 79.3 °F - 60.8 °F 53% 29.75 in 7.0 mi SSE 9.2 mph - N/A   Clear
1:55 PM 80.2 °F 81.1 °F 60.6 °F 51% 29.75 in 10.0 mi South 11.5 mph - N/A   Clear
2:15 PM 81.0 °F 81.6 °F 60.1 °F 49% 29.74 in 10.0 mi SE 8.1 mph - N/A   Clear
2:35 PM 81.5 °F 82.0 °F 60.1 °F 48% 29.73 in 10.0 mi SSE 8.1 mph 16.1 mph N/A   Clear
2:55 PM 82.2 °F 82.6 °F 59.9 °F 47% 29.73 in 10.0 mi SE 8.1 mph - N/A   Clear
3:15 PM 82.2 °F 82.4 °F 59.4 °F 46% 29.72 in 10.0 mi SSE 10.4 mph - N/A   Clear
3:35 PM 82.6 °F 82.8 °F 59.9 °F 46% 29.71 in 10.0 mi SSE 8.1 mph - N/A   Clear
3:55 PM 82.6 °F 82.9 °F 60.4 °F 47% 29.71 in 10.0 mi SE 6.9 mph - N/A   Clear
4:15 PM 82.4 °F 82.9 °F 61.0 °F 48% 29.71 in 10.0 mi SE 11.5 mph - N/A   Clear
4:35 PM 81.9 °F 82.6 °F 61.5 °F 50% 29.71 in 10.0 mi ESE 11.5 mph 16.1 mph N/A   Clear
4:55 PM 81.1 °F 82.0 °F 61.3 °F 51% 29.72 in 10.0 mi SE 10.4 mph 17.3 mph N/A   Clear
5:15 PM 80.2 °F 81.3 °F 61.9 °F 53% 29.73 in 10.0 mi ESE 12.7 mph - N/A   Clear
5:35 PM 79.3 °F - 61.9 °F 55% 29.74 in 10.0 mi SE 10.4 mph - N/A   Clear
5:55 PM 78.3 °F - 62.2 °F 58% 29.74 in 10.0 mi SE 8.1 mph - N/A   Clear
6:15 PM 76.8 °F - 62.6 °F 61% 29.74 in 10.0 mi SE 8.1 mph - N/A   Clear
6:35 PM 75.4 °F - 62.8 °F 65% 29.75 in 10.0 mi SE 8.1 mph - N/A   Clear
6:55 PM 73.9 °F - 63.0 °F 68% 29.75 in 10.0 mi SE 8.1 mph - N/A   Clear
7:15 PM 72.9 °F - 63.3 °F 72% 29.75 in 10.0 mi SE 6.9 mph - N/A   Clear
7:35 PM 71.8 °F - 63.5 °F 75% 29.76 in 7.0 mi ESE 8.1 mph - N/A   Clear
7:55 PM 71.1 °F - 63.5 °F 77% 29.77 in 7.0 mi SE 9.2 mph - N/A   Clear
8:15 PM 70.3 °F - 63.5 °F 79% 29.77 in 7.0 mi SE 10.4 mph - N/A   Clear
8:35 PM 69.4 °F - 63.3 °F 81% 29.78 in 7.0 mi ESE 9.2 mph - N/A   Clear
8:55 PM 68.4 °F - 63.0 °F 83% 29.78 in 7.0 mi SE 10.4 mph - N/A   Clear
9:15 PM 67.6 °F - 63.0 °F 85% 29.79 in 7.0 mi SE 10.4 mph - N/A   Clear
9:35 PM 67.1 °F - 63.0 °F 87% 29.80 in 5.0 mi SE 8.1 mph - N/A   Clear
9:55 PM 66.2 °F - 62.8 °F 89% 29.80 in 5.0 mi SE 6.9 mph - N/A   Clear
10:15 PM 65.7 °F - 62.8 °F 90% 29.80 in 5.0 mi SE 8.1 mph - N/A   Mostly Cloudy
10:35 PM 66.2 °F - 63.5 °F 91% 29.80 in 5.0 mi ESE 6.9 mph - N/A   Overcast
10:55 PM 66.2 °F - 63.5 °F 91% 29.80 in 5.0 mi SE 9.2 mph - N/A   Overcast
11:15 PM 66.4 °F - 63.7 °F 91% 29.80 in 4.0 mi SE 10.4 mph - N/A   Overcast
11:35 PM 66.4 °F - 63.7 °F 91% 29.80 in 4.0 mi SE 11.5 mph - N/A   Overcast
11:55 PM 66.4 °F - 63.7 °F 91% 29.79 in 4.0 mi SE 11.5 mph - N/A   Overcast